createdAt,value
2023-04-18T00:00:40.617Z,193.51
2023-04-18T00:01:40.639Z,193.31
2023-04-18T00:02:40.759Z,193.84
2023-04-18T00:03:40.683Z,193.15
2023-04-18T00:04:40.602Z,193.89
2023-04-18T00:05:40.537Z,193.57
2023-04-18T00:06:40.518Z,194.05
2023-04-18T00:07:40.586Z,193.16
2023-04-18T00:08:40.489Z,193.10
2023-04-18T00:09:40.513Z,194.91
2023-04-18T00:10:40.459Z,193.92
2023-04-18T00:11:40.442Z,193.41
2023-04-18T00:12:40.432Z,192.93
2023-04-18T00:13:40.413Z,191.18
2023-04-18T00:14:40.394Z,194.15
2023-04-18T00:15:40.374Z,193.33
2023-04-18T00:16:40.426Z,191.23
2023-04-18T00:17:40.464Z,192.12
2023-04-18T00:18:40.322Z,192.54
2023-04-18T00:19:40.305Z,193.47
2023-04-18T00:20:40.284Z,192.44
2023-04-18T00:21:40.262Z,193.76
2023-04-18T00:22:40.244Z,192.23
2023-04-18T00:23:40.222Z,193.45
2023-04-18T00:24:40.211Z,193.58
2023-04-18T00:25:40.195Z,192.79
2023-04-18T00:26:40.163Z,193.43
2023-04-18T00:27:40.171Z,192.54
2023-04-18T00:28:40.207Z,192.40
2023-04-18T00:29:40.107Z,192.36
2023-04-18T00:30:40.141Z,192.78
2023-04-18T00:31:40.077Z,192.73
2023-04-18T00:32:40.129Z,191.70
2023-04-18T00:33:40.035Z,192.59
2023-04-18T00:34:40.013Z,191.72
2023-04-18T00:35:40.016Z,191.79
2023-04-18T00:36:39.991Z,192.53
2023-04-18T00:37:39.953Z,192.31
2023-04-18T00:38:39.932Z,192.26
2023-04-18T00:39:39.925Z,191.39
2023-04-18T00:40:39.897Z,191.80
2023-04-18T00:41:39.881Z,191.97
2023-04-18T00:42:39.877Z,192.63
2023-04-18T00:43:39.846Z,193.28
2023-04-18T00:44:39.834Z,191.09
2023-04-18T00:45:39.822Z,192.08
2023-04-18T00:46:39.841Z,191.67
2023-04-18T00:47:39.807Z,190.69
2023-04-18T00:48:39.749Z,193.09
2023-04-18T00:49:39.714Z,192.73
2023-04-18T00:50:39.698Z,191.50
2023-04-18T00:51:39.683Z,192.52
2023-04-18T00:52:39.674Z,193.27
2023-04-18T00:53:39.680Z,190.31
2023-04-18T00:54:39.642Z,189.37
2023-04-18T00:55:39.634Z,189.89
2023-04-18T00:56:39.605Z,190.10
2023-04-18T00:57:39.592Z,190.81
2023-04-18T00:58:39.577Z,191.04
2023-04-18T00:59:39.562Z,191.89
2023-04-18T01:00:39.544Z,190.49
2023-04-18T01:01:39.566Z,190.03
2023-04-18T01:02:39.649Z,191.35
2023-04-18T01:03:39.675Z,190.20
2023-04-18T01:04:39.493Z,190.95
2023-04-18T01:05:39.481Z,191.86
2023-04-18T01:06:39.446Z,190.92
2023-04-18T01:07:39.430Z,190.49
2023-04-18T01:08:39.414Z,190.76
2023-04-18T01:09:39.406Z,191.41
2023-04-18T01:10:39.374Z,189.95
2023-04-18T01:11:39.358Z,190.29
2023-04-18T01:12:39.333Z,190.21
2023-04-18T01:13:39.320Z,190.45
2023-04-18T01:14:39.312Z,191.27
2023-04-18T01:15:39.309Z,191.87
2023-04-18T01:16:39.278Z,191.76
2023-04-18T01:17:39.292Z,191.88
2023-04-18T01:18:39.240Z,190.00
2023-04-18T01:19:39.224Z,189.91
2023-04-18T01:20:39.203Z,189.65
2023-04-18T01:21:39.182Z,190.70
2023-04-18T01:22:39.167Z,189.42
2023-04-18T01:23:39.154Z,190.64
2023-04-18T01:24:39.133Z,189.16
2023-04-18T01:25:39.123Z,189.52
2023-04-18T01:26:39.114Z,190.94
2023-04-18T01:27:39.083Z,190.58
2023-04-18T01:28:39.074Z,188.83
2023-04-18T01:29:39.140Z,188.50
2023-04-18T01:30:39.033Z,190.97
2023-04-18T01:31:39.208Z,190.39
2023-04-18T01:32:39.278Z,191.12
2023-04-18T01:33:38.977Z,190.35
2023-04-18T01:34:38.964Z,190.03
2023-04-18T01:35:38.994Z,189.76
2023-04-18T01:36:38.937Z,188.31
2023-04-18T01:37:38.919Z,189.46
2023-04-18T01:38:38.896Z,190.69
2023-04-18T01:39:38.876Z,190.82
2023-04-18T01:40:38.855Z,188.72
2023-04-18T01:41:38.853Z,189.25
2023-04-18T01:42:38.837Z,188.66
2023-04-18T01:43:38.825Z,188.53
2023-04-18T01:44:38.814Z,187.98
2023-04-18T01:45:38.788Z,189.87
2023-04-18T01:46:38.822Z,189.35
2023-04-18T01:47:38.787Z,190.26
2023-04-18T01:48:38.756Z,188.70
2023-04-18T01:49:38.735Z,188.71
2023-04-18T01:50:38.699Z,187.80
2023-04-18T01:51:38.681Z,189.97
2023-04-18T01:52:38.663Z,188.64
2023-04-18T01:53:38.636Z,188.97
2023-04-18T01:54:38.633Z,187.73
2023-04-18T01:55:38.630Z,187.91
2023-04-18T01:56:38.597Z,188.44
2023-04-18T01:57:38.585Z,187.75
2023-04-18T01:58:38.574Z,187.66
2023-04-18T01:59:38.555Z,188.74
2023-04-18T02:00:38.574Z,189.36
2023-04-18T02:01:38.573Z,187.47
2023-04-18T02:02:38.600Z,188.14
2023-04-18T02:03:38.663Z,188.97
2023-04-18T02:04:38.439Z,186.84
2023-04-18T02:05:38.422Z,188.37
2023-04-18T02:06:38.399Z,189.27
2023-04-18T02:07:38.374Z,188.08
2023-04-18T02:08:38.369Z,189.25
2023-04-18T02:09:38.338Z,186.42
2023-04-18T02:10:38.315Z,189.46
2023-04-18T02:11:38.282Z,189.36
2023-04-18T02:12:38.274Z,187.46
2023-04-18T02:13:38.266Z,189.46
2023-04-18T02:14:38.224Z,187.75
2023-04-18T02:15:38.212Z,186.01
2023-04-18T02:16:38.200Z,188.15
2023-04-18T02:17:38.195Z,187.63
2023-04-18T02:18:38.123Z,189.00
2023-04-18T02:19:38.106Z,188.47
2023-04-18T02:20:38.073Z,187.94
2023-04-18T02:21:38.061Z,188.18
2023-04-18T02:22:38.057Z,187.65
2023-04-18T02:23:38.033Z,188.17
2023-04-18T02:24:38.006Z,189.52
2023-04-18T02:25:38.003Z,186.17
2023-04-18T02:26:37.988Z,187.77
2023-04-18T02:27:37.966Z,186.37
2023-04-18T02:28:37.956Z,186.58
2023-04-18T02:29:37.939Z,185.72
2023-04-18T02:30:37.921Z,187.84
2023-04-18T02:31:37.970Z,188.05
2023-04-18T02:32:37.958Z,188.38
2023-04-18T02:33:37.878Z,185.82
2023-04-18T02:34:37.853Z,186.75
2023-04-18T02:35:37.836Z,187.93
2023-04-18T02:36:37.900Z,186.12
2023-04-18T02:37:37.777Z,188.18
2023-04-18T02:38:37.760Z,185.89
2023-04-18T02:39:37.819Z,186.23
2023-04-18T02:40:37.723Z,186.89
2023-04-18T02:41:37.693Z,185.92
2023-04-18T02:42:37.688Z,186.27
2023-04-18T02:43:37.671Z,185.30
2023-04-18T02:44:37.659Z,187.31
2023-04-18T02:45:37.651Z,186.25
2023-04-18T02:46:37.620Z,185.22
2023-04-18T02:47:47.005Z,184.77
2023-04-18T02:48:38.540Z,184.91
2023-04-18T02:49:37.613Z,185.21
2023-04-18T02:50:37.365Z,185.99
2023-04-18T02:51:37.274Z,186.07
2023-04-18T02:52:37.206Z,185.84
2023-04-18T02:53:37.127Z,185.88
2023-04-18T02:54:37.056Z,187.79
2023-04-18T02:55:36.954Z,186.11
2023-04-18T02:56:36.871Z,184.40
2023-04-18T02:57:36.806Z,186.02
2023-04-18T02:58:36.781Z,185.31
2023-04-18T02:59:36.752Z,184.79
2023-04-18T03:00:36.708Z,186.40
2023-04-18T03:01:36.749Z,185.49
2023-04-18T03:02:36.784Z,183.33
2023-04-18T03:03:36.673Z,184.28
2023-04-18T03:04:36.724Z,186.01
2023-04-18T03:05:36.635Z,185.39
2023-04-18T03:06:36.623Z,185.33
2023-04-18T03:07:36.594Z,185.64
2023-04-18T03:08:36.655Z,184.52
2023-04-18T03:09:36.546Z,186.73
2023-04-18T03:10:36.532Z,184.86
2023-04-18T03:11:36.511Z,184.66
2023-04-18T03:12:36.493Z,185.88
2023-04-18T03:13:36.482Z,187.28
2023-04-18T03:14:36.470Z,184.89
2023-04-18T03:15:36.474Z,184.91
2023-04-18T03:16:36.419Z,185.48
2023-04-18T03:17:36.438Z,184.93
2023-04-18T03:18:36.377Z,184.34
2023-04-18T03:19:36.364Z,184.07
2023-04-18T03:20:36.355Z,182.59
2023-04-18T03:21:36.322Z,184.89
2023-04-18T03:22:36.302Z,185.17
2023-04-18T03:23:36.297Z,184.70
2023-04-18T03:24:36.284Z,183.26
2023-04-18T03:25:36.254Z,183.49
2023-04-18T03:26:36.231Z,183.98
2023-04-18T03:27:36.216Z,183.97
2023-04-18T03:28:36.208Z,184.40
2023-04-18T03:29:36.170Z,186.51
2023-04-18T03:30:36.158Z,185.00
2023-04-18T03:31:36.173Z,182.42
2023-04-18T03:32:36.149Z,184.93
2023-04-18T03:33:36.115Z,184.10
2023-04-18T03:34:36.100Z,183.10
2023-04-18T03:35:36.070Z,183.97
2023-04-18T03:36:36.051Z,185.37
2023-04-18T03:37:36.043Z,183.09
2023-04-18T03:38:36.022Z,184.00
2023-04-18T03:39:36.007Z,185.45
2023-04-18T03:40:36.000Z,185.80
2023-04-18T03:41:35.980Z,181.61
2023-04-18T03:42:35.979Z,182.89
2023-04-18T03:43:35.953Z,186.30
2023-04-18T03:44:35.935Z,182.23
2023-04-18T03:45:35.921Z,183.53
2023-04-18T03:46:35.979Z,185.47
2023-04-18T03:47:35.906Z,185.64
2023-04-18T03:48:35.901Z,183.90
2023-04-18T03:49:35.846Z,182.92
2023-04-18T03:50:35.823Z,184.66
2023-04-18T03:51:35.812Z,182.61
2023-04-18T03:52:35.798Z,182.37
2023-04-18T03:53:35.774Z,181.15
2023-04-18T03:54:35.753Z,182.34
2023-04-18T03:55:35.732Z,181.93
2023-04-18T03:56:35.729Z,181.12
2023-04-18T03:57:35.703Z,183.80
2023-04-18T03:58:35.682Z,181.27
2023-04-18T03:59:35.665Z,182.47
2023-04-18T04:00:35.648Z,182.27
2023-04-18T04:01:35.652Z,182.43
2023-04-18T04:02:35.819Z,182.92
2023-04-18T04:03:35.694Z,181.66
2023-04-18T04:04:35.628Z,183.38
2023-04-18T04:05:35.557Z,181.69
2023-04-18T04:06:35.540Z,181.86
2023-04-18T04:07:35.521Z,181.75
2023-04-18T04:08:35.500Z,181.44
2023-04-18T04:09:35.496Z,180.99
2023-04-18T04:10:35.466Z,181.96
2023-04-18T04:11:35.437Z,182.20
2023-04-18T04:12:35.429Z,180.57
2023-04-18T04:13:35.406Z,181.64
2023-04-18T04:14:35.406Z,182.03
2023-04-18T04:15:35.360Z,180.83
2023-04-18T04:16:35.370Z,180.84
2023-04-18T04:17:35.361Z,180.75
2023-04-18T04:18:35.312Z,181.35
2023-04-18T04:19:35.295Z,181.36
2023-04-18T04:20:35.273Z,181.89
2023-04-18T04:21:35.259Z,181.87
2023-04-18T04:22:35.239Z,180.27
2023-04-18T04:23:35.223Z,179.86
2023-04-18T04:24:35.219Z,180.11
2023-04-18T04:25:35.196Z,179.40
2023-04-18T04:26:35.261Z,182.33
2023-04-18T04:27:35.152Z,181.20
2023-04-18T04:28:35.135Z,178.75
2023-04-18T04:29:35.116Z,181.45
2023-04-18T04:30:35.088Z,180.35
2023-04-18T04:31:35.106Z,179.82
2023-04-18T04:32:35.071Z,178.44
2023-04-18T04:33:35.033Z,180.51
2023-04-18T04:34:35.002Z,179.59
2023-04-18T04:35:34.982Z,180.63
2023-04-18T04:36:34.957Z,179.24
2023-04-18T04:37:34.932Z,181.07
2023-04-18T04:38:34.907Z,181.21
2023-04-18T04:39:34.889Z,181.08
2023-04-18T04:40:34.869Z,181.05
2023-04-18T04:41:34.860Z,179.72
2023-04-18T04:42:34.837Z,179.07
2023-04-18T04:43:34.826Z,179.07
2023-04-18T04:44:34.863Z,179.16
2023-04-18T04:45:34.830Z,177.61
2023-04-18T04:46:34.781Z,178.96
2023-04-18T04:47:34.797Z,179.58
2023-04-18T04:48:34.748Z,178.49
2023-04-18T04:49:34.737Z,179.41
2023-04-18T04:50:34.723Z,180.18
2023-04-18T04:51:34.698Z,179.21
2023-04-18T04:52:34.692Z,181.01
2023-04-18T04:53:34.675Z,178.92
2023-04-18T04:54:34.670Z,178.25
2023-04-18T04:55:34.653Z,178.75
2023-04-18T04:56:34.623Z,178.96
2023-04-18T04:57:34.603Z,179.49
2023-04-18T04:58:34.594Z,175.54
2023-04-18T04:59:34.561Z,177.61
2023-04-18T05:00:34.539Z,179.02
2023-04-18T05:01:34.597Z,175.80
2023-04-18T05:02:34.597Z,179.16
2023-04-18T05:03:34.602Z,176.60
2023-04-18T05:04:34.593Z,176.54
2023-04-18T05:05:34.468Z,176.40
2023-04-18T05:06:34.486Z,179.05
2023-04-18T05:07:34.453Z,177.87
2023-04-18T05:08:34.410Z,175.24
2023-04-18T05:09:34.403Z,175.12
2023-04-18T05:10:34.391Z,177.18
2023-04-18T05:11:34.376Z,177.29
2023-04-18T05:12:34.348Z,176.02
2023-04-18T05:13:34.346Z,177.86
2023-04-18T05:14:34.323Z,177.45
2023-04-18T05:15:34.324Z,175.86
2023-04-18T05:16:34.326Z,176.88
2023-04-18T05:17:34.300Z,177.49
2023-04-18T05:18:35.115Z,176.26
2023-04-18T05:19:34.363Z,177.76
2023-04-18T05:20:34.248Z,176.95
2023-04-18T05:21:34.224Z,175.97
2023-04-18T05:22:34.219Z,179.16
2023-04-18T05:23:34.209Z,177.82
2023-04-18T05:24:34.181Z,176.38
2023-04-18T05:25:34.187Z,181.10
2023-04-18T05:26:34.156Z,179.40
2023-04-18T05:27:34.142Z,184.95
2023-04-18T05:28:34.149Z,185.64
2023-04-18T05:29:34.121Z,193.53
2023-04-18T05:30:34.094Z,202.77
2023-04-18T05:31:34.203Z,212.27
2023-04-18T05:32:34.073Z,222.68
2023-04-18T05:33:34.012Z,226.80
2023-04-18T05:34:33.947Z,233.55
2023-04-18T05:35:33.896Z,232.81
2023-04-18T05:36:33.844Z,238.22
2023-04-18T05:37:33.793Z,245.79
2023-04-18T05:38:33.755Z,248.85
2023-04-18T05:39:33.666Z,249.20
2023-04-18T05:40:33.605Z,249.06
2023-04-18T05:41:33.535Z,249.46
2023-04-18T05:42:33.466Z,250.00
2023-04-18T05:43:33.424Z,248.65
2023-04-18T05:44:33.327Z,249.55
2023-04-18T05:45:33.236Z,249.39
2023-04-18T05:46:33.218Z,249.77
2023-04-18T05:47:33.091Z,250.00
2023-04-18T05:48:33.040Z,250.21
2023-04-18T05:49:32.995Z,249.38
2023-04-18T05:50:32.934Z,248.35
2023-04-18T05:51:32.893Z,249.73
2023-04-18T05:52:32.888Z,249.23
2023-04-18T05:53:32.868Z,250.00
2023-04-18T05:54:32.833Z,250.09
2023-04-18T05:55:32.817Z,250.00
2023-04-18T05:56:32.793Z,223.42
2023-04-18T05:57:32.761Z,181.63
2023-04-18T05:58:32.694Z,162.94
2023-04-18T05:59:32.600Z,177.29
2023-04-18T06:00:32.523Z,219.31
2023-04-18T06:01:32.446Z,222.39
2023-04-18T06:02:32.535Z,218.68
2023-04-18T06:03:32.551Z,221.36
2023-04-18T06:04:32.600Z,223.37
2023-04-18T06:05:32.303Z,224.66
2023-04-18T06:06:32.210Z,228.70
2023-04-18T06:07:32.207Z,231.37
2023-04-18T06:08:32.197Z,232.29
2023-04-18T06:09:32.196Z,237.53
2023-04-18T06:10:32.154Z,240.90
2023-04-18T06:11:32.126Z,242.56
2023-04-18T06:12:32.105Z,245.82
2023-04-18T06:13:32.089Z,247.83
2023-04-18T06:14:32.051Z,251.16
2023-04-18T06:15:32.022Z,250.00
2023-04-18T06:16:32.022Z,249.40
2023-04-18T06:17:31.991Z,255.88
2023-04-18T06:18:31.928Z,256.38
2023-04-18T06:19:31.966Z,250.15
2023-04-18T06:20:31.842Z,248.13
2023-04-18T06:21:31.808Z,244.25
2023-04-18T06:22:31.784Z,241.48
2023-04-18T06:23:31.735Z,240.54
2023-04-18T06:24:32.693Z,237.65
2023-04-18T06:25:31.650Z,235.51
2023-04-18T06:26:33.221Z,222.98
2023-04-18T06:27:32.160Z,191.86
2023-04-18T06:28:31.619Z,146.06
2023-04-18T06:29:31.483Z,103.68
2023-04-18T06:30:31.472Z,85.77
2023-04-18T06:31:31.492Z,80.37
2023-04-18T06:32:31.445Z,82.69
2023-04-18T06:33:31.400Z,84.57
2023-04-18T06:34:31.350Z,88.27
2023-04-18T06:35:31.314Z,89.54
2023-04-18T06:36:31.277Z,94.38
2023-04-18T06:37:31.261Z,97.47
2023-04-18T06:38:31.234Z,104.48
2023-04-18T06:39:31.204Z,110.96
2023-04-18T06:40:31.153Z,117.41
2023-04-18T06:41:31.112Z,120.49
2023-04-18T06:42:31.043Z,124.19
2023-04-18T06:43:31.703Z,127.74
2023-04-18T06:44:30.903Z,131.49
2023-04-18T06:45:30.847Z,134.04
2023-04-18T06:46:30.792Z,137.31
2023-04-18T06:47:30.700Z,138.63
2023-04-18T06:48:30.611Z,143.57
2023-04-18T06:49:30.580Z,145.79
2023-04-18T06:50:30.566Z,150.54
2023-04-18T06:51:30.563Z,153.42
2023-04-18T06:52:30.525Z,156.98
2023-04-18T06:53:30.509Z,160.41
2023-04-18T06:54:30.481Z,162.08
2023-04-18T06:55:30.467Z,164.70
2023-04-18T06:56:30.437Z,168.88
2023-04-18T06:57:30.387Z,171.66
2023-04-18T06:58:30.353Z,174.21
2023-04-18T06:59:30.304Z,177.29
2023-04-18T07:00:30.357Z,179.63
2023-04-18T07:01:30.279Z,181.16
2023-04-18T07:02:30.244Z,184.02
2023-04-18T07:03:30.162Z,187.66
2023-04-18T07:04:30.130Z,190.48
2023-04-18T07:05:30.017Z,193.12
2023-04-18T07:06:29.942Z,195.74
2023-04-18T07:07:29.883Z,197.38
2023-04-18T07:08:29.821Z,199.92
2023-04-18T07:09:29.726Z,201.97
2023-04-18T07:10:29.643Z,203.95
2023-04-18T07:11:29.545Z,206.01
2023-04-18T07:12:29.491Z,209.43
2023-04-18T07:13:29.399Z,210.70
2023-04-18T07:14:29.300Z,212.82
2023-04-18T07:15:29.205Z,216.18
2023-04-18T07:16:29.122Z,216.76
2023-04-18T07:17:29.090Z,219.79
2023-04-18T07:18:37.525Z,222.20
2023-04-18T07:19:29.909Z,222.36
2023-04-18T07:20:28.851Z,222.64
2023-04-18T07:21:28.709Z,223.46
2023-04-18T07:22:29.217Z,224.61
2023-04-18T07:23:29.288Z,226.19
2023-04-18T07:24:28.623Z,226.52
2023-04-18T07:25:28.328Z,226.39
2023-04-18T07:26:28.204Z,225.58
2023-04-18T07:27:28.116Z,226.59
2023-04-18T07:28:28.081Z,226.00
2023-04-18T07:29:28.057Z,226.11
2023-04-18T07:30:28.009Z,225.59
2023-04-18T07:31:27.990Z,225.33
2023-04-18T07:32:27.917Z,225.32
2023-04-18T07:33:27.847Z,224.83
2023-04-18T07:34:27.811Z,225.06
2023-04-18T07:35:27.771Z,223.92
2023-04-18T07:36:27.728Z,224.74
2023-04-18T07:37:27.688Z,223.17
2023-04-18T07:38:27.669Z,223.35
2023-04-18T07:39:27.624Z,222.92
2023-04-18T07:40:27.656Z,222.92
2023-04-18T07:41:27.556Z,223.22
2023-04-18T07:42:27.538Z,223.17
2023-04-18T07:43:27.506Z,222.43
2023-04-18T07:44:27.475Z,222.24
2023-04-18T07:45:27.452Z,222.72
2023-04-18T07:46:27.459Z,221.51
2023-04-18T07:47:28.253Z,221.82
2023-04-18T07:48:27.374Z,221.29
2023-04-18T07:49:27.293Z,220.94
2023-04-18T07:50:27.252Z,220.71
2023-04-18T07:51:27.268Z,221.06
2023-04-18T07:52:27.115Z,219.70
2023-04-18T07:53:27.080Z,219.06
2023-04-18T07:54:26.984Z,219.32
2023-04-18T07:55:26.952Z,218.26
2023-04-18T07:56:26.842Z,218.44
2023-04-18T07:57:26.764Z,218.57
2023-04-18T07:58:26.743Z,217.04
2023-04-18T07:59:26.609Z,217.84
2023-04-18T08:00:26.751Z,216.93
2023-04-18T08:01:26.471Z,216.89
2023-04-18T08:02:26.512Z,216.84
2023-04-18T08:03:26.486Z,215.57
2023-04-18T08:04:28.363Z,216.01
2023-04-18T08:05:26.166Z,217.45
2023-04-18T08:06:26.211Z,215.44
2023-04-18T08:07:25.922Z,215.90
2023-04-18T08:08:25.825Z,214.20
2023-04-18T08:09:25.739Z,213.35
2023-04-18T08:10:25.694Z,213.67
2023-04-18T08:11:25.519Z,213.00
2023-04-18T08:12:25.416Z,212.72
2023-04-18T08:13:25.333Z,213.53
2023-04-18T08:14:25.230Z,188.03
2023-04-18T08:15:25.118Z,148.28
2023-04-18T08:16:25.083Z,114.11
2023-04-18T08:17:24.950Z,80.50
2023-04-18T08:18:24.834Z,62.38
2023-04-18T08:19:24.729Z,41.39
2023-04-18T08:20:24.632Z,25.50
2023-04-18T08:21:24.544Z,27.55
2023-04-18T08:22:24.468Z,29.76
2023-04-18T08:23:24.354Z,46.52
2023-04-18T08:24:24.268Z,37.01
2023-04-18T08:25:24.211Z,31.14
2023-04-18T08:26:24.128Z,25.61
2023-04-18T08:27:23.969Z,31.13
2023-04-18T08:28:23.882Z,37.76
2023-04-18T08:29:23.790Z,47.41
2023-04-18T08:30:23.696Z,60.98
2023-04-18T08:31:23.608Z,73.31
2023-04-18T08:32:23.514Z,81.13
2023-04-18T08:33:23.417Z,88.51
2023-04-18T08:34:23.317Z,94.90
2023-04-18T08:35:23.220Z,102.27
2023-04-18T08:36:23.126Z,107.40
2023-04-18T08:37:23.041Z,110.97
2023-04-18T08:38:22.926Z,114.59
2023-04-18T08:39:25.207Z,117.70
2023-04-18T08:40:22.819Z,122.94
2023-04-18T08:41:22.725Z,126.86
2023-04-18T08:42:22.648Z,129.62
2023-04-18T08:43:22.574Z,132.60
2023-04-18T08:44:22.477Z,134.19
2023-04-18T08:45:22.373Z,136.87
2023-04-18T08:46:22.395Z,140.20
2023-04-18T08:47:22.255Z,142.68
2023-04-18T08:48:22.093Z,144.67
2023-04-18T08:49:22.009Z,146.40
2023-04-18T08:50:21.962Z,149.49
2023-04-18T08:51:21.954Z,151.28
2023-04-18T08:52:21.926Z,152.89
2023-04-18T08:53:21.893Z,155.03
2023-04-18T08:54:21.868Z,157.79
2023-04-18T08:55:21.819Z,160.78
2023-04-18T08:56:21.781Z,162.51
2023-04-18T08:57:22.682Z,163.93
2023-04-18T08:58:21.677Z,166.33
2023-04-18T08:59:21.618Z,167.60
2023-04-18T09:00:21.726Z,168.76
2023-04-18T09:01:21.565Z,169.81
2023-04-18T09:02:21.537Z,169.89
2023-04-18T09:03:21.480Z,170.96
2023-04-18T09:04:21.382Z,171.53
2023-04-18T09:05:21.265Z,173.68
2023-04-18T09:06:21.182Z,174.53
2023-04-18T09:07:21.124Z,175.38
2023-04-18T09:08:21.040Z,176.92
2023-04-18T09:09:20.965Z,179.63
2023-04-18T09:10:20.896Z,179.08
2023-04-18T09:11:20.826Z,179.60
2023-04-18T09:12:20.727Z,179.19
2023-04-18T09:13:20.932Z,180.46
2023-04-18T09:14:20.573Z,179.95
2023-04-18T09:15:20.504Z,180.78
2023-04-18T09:16:20.652Z,182.62
2023-04-18T09:17:20.331Z,170.09
2023-04-18T09:18:20.258Z,166.62
2023-04-18T09:19:20.183Z,163.54
2023-04-18T09:20:20.097Z,161.66
2023-04-18T09:21:20.029Z,160.65
2023-04-18T09:22:20.687Z,157.97
2023-04-18T09:23:19.867Z,151.19
2023-04-18T09:24:19.801Z,156.27
2023-04-18T09:25:20.269Z,153.16
2023-04-18T09:26:19.656Z,151.92
2023-04-18T09:27:19.594Z,147.64
2023-04-18T09:28:19.536Z,143.68
2023-04-18T09:29:19.484Z,135.21
2023-04-18T09:30:19.405Z,138.99
2023-04-18T09:31:19.375Z,130.21
2023-04-18T09:32:19.462Z,122.09
2023-04-18T09:33:19.243Z,121.53
2023-04-18T09:34:19.192Z,115.24
2023-04-18T09:35:19.155Z,108.70
2023-04-18T09:36:19.249Z,105.95
2023-04-18T09:37:19.080Z,101.34
2023-04-18T09:38:19.036Z,107.94
2023-04-18T09:39:19.013Z,100.00
2023-04-18T09:40:19.020Z,102.12
2023-04-18T09:41:21.381Z,93.77
2023-04-18T09:42:18.842Z,89.22
2023-04-18T09:43:18.741Z,81.38
2023-04-18T09:44:18.830Z,78.93
2023-04-18T09:45:18.517Z,79.08
2023-04-18T09:46:18.514Z,71.10
2023-04-18T09:47:18.313Z,72.15
2023-04-18T09:48:18.239Z,65.54
2023-04-18T09:49:18.574Z,76.20
2023-04-18T09:50:18.014Z,67.19
2023-04-18T09:51:17.912Z,62.00
2023-04-18T09:52:17.808Z,61.24
2023-04-18T09:53:19.451Z,57.70
2023-04-18T09:54:17.628Z,56.68
2023-04-18T09:55:17.567Z,58.00
2023-04-18T09:56:17.414Z,58.11
2023-04-18T09:57:17.320Z,59.94
2023-04-18T09:58:17.232Z,55.72
2023-04-18T09:59:18.133Z,58.95
2023-04-18T10:00:17.067Z,58.60
2023-04-18T10:01:17.035Z,59.13
2023-04-18T10:02:16.880Z,58.38
2023-04-18T10:03:16.916Z,52.49
2023-04-18T10:04:17.011Z,53.95
2023-04-18T10:05:17.660Z,41.30
2023-04-18T10:06:16.438Z,41.44
2023-04-18T10:07:16.327Z,41.30
2023-04-18T10:08:16.230Z,37.97
2023-04-18T10:09:16.434Z,37.13
2023-04-18T10:10:16.042Z,36.50
2023-04-18T10:11:15.950Z,39.45
2023-04-18T10:12:15.846Z,37.81
2023-04-18T10:13:15.756Z,36.14
2023-04-18T10:14:15.937Z,28.07
2023-04-18T10:15:16.231Z,24.90
2023-04-18T10:16:15.564Z,25.00
2023-04-18T10:17:15.375Z,16.26
2023-04-18T10:18:15.304Z,7.52
2023-04-18T10:19:15.284Z,0.00
2023-04-18T10:20:15.092Z,8.43
2023-04-18T10:21:14.990Z,22.49
2023-04-18T10:22:15.907Z,29.00
2023-04-18T10:23:14.800Z,34.80
2023-04-18T10:24:14.994Z,42.35
2023-04-18T10:25:14.640Z,50.00
2023-04-18T10:26:15.356Z,56.88
2023-04-18T10:27:14.428Z,57.38
2023-04-18T10:28:14.335Z,62.94
2023-04-18T10:29:14.417Z,69.18
2023-04-18T10:30:15.213Z,68.77
2023-04-18T10:31:14.340Z,68.98
2023-04-18T10:32:13.964Z,73.15
2023-04-18T10:33:21.952Z,77.74
2023-04-18T10:34:14.782Z,77.89
2023-04-18T10:35:13.706Z,78.50
2023-04-18T10:36:13.803Z,79.44
2023-04-18T10:37:13.495Z,81.55
2023-04-18T10:38:13.398Z,86.65
2023-04-18T10:39:13.288Z,89.91
2023-04-18T10:40:13.199Z,91.31
2023-04-18T10:41:13.111Z,92.65
2023-04-18T10:42:13.023Z,93.81
2023-04-18T10:43:12.918Z,96.57
2023-04-18T10:44:12.902Z,97.60
2023-04-18T10:45:12.712Z,98.89
2023-04-18T10:46:27.919Z,101.86
2023-04-18T10:47:13.596Z,102.01
2023-04-18T10:48:12.457Z,102.57
2023-04-18T10:49:12.562Z,104.13
2023-04-18T10:50:12.246Z,106.52
2023-04-18T10:51:12.175Z,108.61
2023-04-18T10:52:13.466Z,110.65
2023-04-18T10:53:11.946Z,112.45
2023-04-18T10:54:11.896Z,114.00
2023-04-18T10:55:11.762Z,115.49
2023-04-18T10:56:11.661Z,116.40
2023-04-18T10:57:11.560Z,117.57
2023-04-18T10:58:11.469Z,119.15
2023-04-18T10:59:11.365Z,119.89
2023-04-18T11:00:11.273Z,119.95
2023-04-18T11:01:11.217Z,120.87
2023-04-18T11:02:11.158Z,121.27
2023-04-18T11:03:11.153Z,121.24
2023-04-18T11:04:11.014Z,122.41
2023-04-18T11:05:10.788Z,123.51
2023-04-18T11:06:10.685Z,125.75
2023-04-18T11:07:10.583Z,126.19
2023-04-18T11:08:10.477Z,129.13
2023-04-18T11:09:10.602Z,128.46
2023-04-18T11:10:10.308Z,130.21
2023-04-18T11:11:10.173Z,129.94
2023-04-18T11:12:10.057Z,129.90
2023-04-18T11:13:09.971Z,130.56
2023-04-18T11:14:09.860Z,132.16
2023-04-18T11:15:09.735Z,132.93
2023-04-18T11:16:09.685Z,133.30
2023-04-18T11:17:09.528Z,134.24
2023-04-18T11:18:09.470Z,135.79
2023-04-18T11:19:09.347Z,136.41
2023-04-18T11:20:09.324Z,137.05
2023-04-18T11:21:09.181Z,136.72
2023-04-18T11:22:09.089Z,138.95
2023-04-18T11:23:09.020Z,138.09
2023-04-18T11:24:09.055Z,139.06
2023-04-18T11:25:08.844Z,139.59
2023-04-18T11:26:08.791Z,140.90
2023-04-18T11:27:08.694Z,141.14
2023-04-18T11:28:08.605Z,143.26
2023-04-18T11:29:08.523Z,142.94
2023-04-18T11:30:08.445Z,143.42
2023-04-18T11:31:08.372Z,143.79
2023-04-18T11:32:08.318Z,145.39
2023-04-18T11:33:08.316Z,145.15
2023-04-18T11:34:08.149Z,145.91
2023-04-18T11:35:08.060Z,146.05
2023-04-18T11:36:07.993Z,147.14
2023-04-18T11:37:07.929Z,147.50
2023-04-18T11:38:07.827Z,147.92
2023-04-18T11:39:07.765Z,147.93
2023-04-18T11:40:07.747Z,149.47
2023-04-18T11:41:07.610Z,150.48
2023-04-18T11:42:07.541Z,150.39
2023-04-18T11:43:07.487Z,150.25
2023-04-18T11:44:07.378Z,151.81
2023-04-18T11:45:07.303Z,152.31
2023-04-18T11:46:07.296Z,152.80
2023-04-18T11:47:07.156Z,153.80
2023-04-18T11:48:07.153Z,152.69
2023-04-18T11:49:07.034Z,154.14
2023-04-18T11:50:06.975Z,154.97
2023-04-18T11:51:06.893Z,154.72
2023-04-18T11:52:06.811Z,154.78
2023-04-18T11:53:06.732Z,154.58
2023-04-18T11:54:06.680Z,154.25
2023-04-18T11:55:06.596Z,154.90
2023-04-18T11:56:06.573Z,155.58
2023-04-18T11:57:06.476Z,155.60
2023-04-18T11:58:06.380Z,155.39
2023-04-18T11:59:06.303Z,156.06
2023-04-18T12:00:06.241Z,155.39
2023-04-18T12:01:06.176Z,156.31
2023-04-18T12:02:16.112Z,156.53
2023-04-18T12:03:07.108Z,156.62
2023-04-18T12:04:06.096Z,156.73
2023-04-18T12:05:06.185Z,156.92
2023-04-18T12:06:05.910Z,157.86
2023-04-18T12:07:05.701Z,158.34
2023-04-18T12:08:05.529Z,158.56
2023-04-18T12:09:05.425Z,158.58
2023-04-18T12:10:05.353Z,159.17
2023-04-18T12:11:05.233Z,158.05
2023-04-18T12:12:05.147Z,158.21
2023-04-18T12:13:05.036Z,158.98
2023-04-18T12:14:04.932Z,158.24
2023-04-18T12:15:04.835Z,158.81
2023-04-18T12:16:04.797Z,157.43
2023-04-18T12:17:04.631Z,158.92
2023-04-18T12:18:04.560Z,159.31
2023-04-18T12:19:04.430Z,159.29
2023-04-18T12:20:04.350Z,159.13
2023-04-18T12:21:04.233Z,158.37
2023-04-18T12:22:04.131Z,159.00
2023-04-18T12:23:04.065Z,157.95
2023-04-18T12:24:04.001Z,158.46
2023-04-18T12:25:03.929Z,158.96
2023-04-18T12:26:03.878Z,158.63
2023-04-18T12:27:03.809Z,159.03
2023-04-18T12:28:03.735Z,159.35
2023-04-18T12:29:03.665Z,159.62
2023-04-18T12:30:03.617Z,157.97
2023-04-18T12:31:03.569Z,159.09